sensor_id;sensor_type;location;lat;lon;timestamp;P1;durP1;ratioP1;P2;durP2;ratioP2
64619;SDS011;51029;51.058;13.826;2023-11-19T00:02:12;14.37;;;11.90;;
64619;SDS011;51029;51.058;13.826;2023-11-19T00:04:38;13.37;;;11.70;;
64619;SDS011;51029;51.058;13.826;2023-11-19T00:07:04;13.70;;;11.57;;
64619;SDS011;51029;51.058;13.826;2023-11-19T00:09:32;15.50;;;13.13;;
64619;SDS011;51029;51.058;13.826;2023-11-19T00:11:58;14.67;;;12.23;;
64619;SDS011;51029;51.058;13.826;2023-11-19T00:14:25;13.80;;;12.27;;
64619;SDS011;51029;51.058;13.826;2023-11-19T00:16:51;15.47;;;12.60;;
64619;SDS011;51029;51.058;13.826;2023-11-19T00:19:18;15.70;;;13.10;;
64619;SDS011;51029;51.058;13.826;2023-11-19T00:21:44;16.70;;;12.93;;
64619;SDS011;51029;51.058;13.826;2023-11-19T00:24:10;14.90;;;12.70;;
64619;SDS011;51029;51.058;13.826;2023-11-19T00:26:37;16.53;;;13.20;;
64619;SDS011;51029;51.058;13.826;2023-11-19T00:29:03;14.40;;;12.50;;
64619;SDS011;51029;51.058;13.826;2023-11-19T00:31:30;15.03;;;13.37;;
64619;SDS011;51029;51.058;13.826;2023-11-19T00:33:56;14.73;;;12.97;;
64619;SDS011;51029;51.058;13.826;2023-11-19T00:36:22;14.00;;;12.50;;
64619;SDS011;51029;51.058;13.826;2023-11-19T00:38:49;13.80;;;11.63;;
64619;SDS011;51029;51.058;13.826;2023-11-19T00:41:15;14.73;;;13.17;;
64619;SDS011;51029;51.058;13.826;2023-11-19T00:43:44;14.83;;;12.33;;
64619;SDS011;51029;51.058;13.826;2023-11-19T00:46:10;13.13;;;11.43;;
64619;SDS011;51029;51.058;13.826;2023-11-19T00:48:36;13.60;;;12.10;;
64619;SDS011;51029;51.058;13.826;2023-11-19T00:51:03;13.20;;;11.07;;
64619;SDS011;51029;51.058;13.826;2023-11-19T00:53:29;12.37;;;11.10;;
64619;SDS011;51029;51.058;13.826;2023-11-19T00:55:55;13.77;;;11.80;;
64619;SDS011;51029;51.058;13.826;2023-11-19T00:58:22;12.80;;;11.13;;
64619;SDS011;51029;51.058;13.826;2023-11-19T01:00:47;12.63;;;11.33;;
64619;SDS011;51029;51.058;13.826;2023-11-19T01:03:13;13.33;;;10.83;;
64619;SDS011;51029;51.058;13.826;2023-11-19T01:05:40;11.87;;;10.10;;
64619;SDS011;51029;51.058;13.826;2023-11-19T01:08:06;11.73;;;10.50;;
64619;SDS011;51029;51.058;13.826;2023-11-19T01:10:33;11.93;;;10.60;;
64619;SDS011;51029;51.058;13.826;2023-11-19T01:12:59;11.67;;;10.47;;
64619;SDS011;51029;51.058;13.826;2023-11-19T01:15:25;10.57;;;9.43;;
64619;SDS011;51029;51.058;13.826;2023-11-19T01:17:51;10.70;;;9.60;;
64619;SDS011;51029;51.058;13.826;2023-11-19T01:20:17;10.23;;;9.13;;
64619;SDS011;51029;51.058;13.826;2023-11-19T01:22:43;11.07;;;9.77;;
64619;SDS011;51029;51.058;13.826;2023-11-19T01:25:09;9.83;;;8.83;;
64619;SDS011;51029;51.058;13.826;2023-11-19T01:27:35;9.80;;;8.70;;
64619;SDS011;51029;51.058;13.826;2023-11-19T01:30:01;9.07;;;8.17;;
64619;SDS011;51029;51.058;13.826;2023-11-19T01:32:34;8.50;;;7.60;;
64619;SDS011;51029;51.058;13.826;2023-11-19T01:35:01;8.33;;;7.40;;
64619;SDS011;51029;51.058;13.826;2023-11-19T01:37:27;8.30;;;7.43;;
64619;SDS011;51029;51.058;13.826;2023-11-19T01:39:53;8.37;;;7.47;;
64619;SDS011;51029;51.058;13.826;2023-11-19T01:42:19;7.67;;;6.87;;
64619;SDS011;51029;51.058;13.826;2023-11-19T01:44:55;8.23;;;7.30;;
64619;SDS011;51029;51.058;13.826;2023-11-19T01:47:22;9.13;;;7.80;;
64619;SDS011;51029;51.058;13.826;2023-11-19T01:49:49;8.27;;;7.20;;
64619;SDS011;51029;51.058;13.826;2023-11-19T01:52:15;7.57;;;6.53;;
64619;SDS011;51029;51.058;13.826;2023-11-19T01:54:41;7.90;;;7.20;;
64619;SDS011;51029;51.058;13.826;2023-11-19T01:57:07;7.60;;;6.83;;
64619;SDS011;51029;51.058;13.826;2023-11-19T01:59:34;7.43;;;6.63;;
64619;SDS011;51029;51.058;13.826;2023-11-19T02:02:00;7.10;;;6.40;;
64619;SDS011;51029;51.058;13.826;2023-11-19T02:04:26;6.70;;;6.00;;
64619;SDS011;51029;51.058;13.826;2023-11-19T02:06:52;6.80;;;6.20;;
64619;SDS011;51029;51.058;13.826;2023-11-19T02:09:20;6.37;;;5.77;;
64619;SDS011;51029;51.058;13.826;2023-11-19T02:11:46;6.33;;;5.73;;
64619;SDS011;51029;51.058;13.826;2023-11-19T02:14:16;6.30;;;5.70;;
64619;SDS011;51029;51.058;13.826;2023-11-19T02:16:42;5.20;;;4.70;;
64619;SDS011;51029;51.058;13.826;2023-11-19T02:19:08;5.20;;;4.70;;
64619;SDS011;51029;51.058;13.826;2023-11-19T02:21:38;4.90;;;4.40;;
64619;SDS011;51029;51.058;13.826;2023-11-19T02:24:05;4.40;;;4.00;;
64619;SDS011;51029;51.058;13.826;2023-11-19T02:29:00;4.00;;;3.70;;
64619;SDS011;51029;51.058;13.826;2023-11-19T02:31:26;3.60;;;3.30;;
64619;SDS011;51029;51.058;13.826;2023-11-19T02:33:52;3.90;;;3.57;;
64619;SDS011;51029;51.058;13.826;2023-11-19T02:36:18;3.53;;;3.23;;
64619;SDS011;51029;51.058;13.826;2023-11-19T02:38:44;3.97;;;3.57;;
64619;SDS011;51029;51.058;13.826;2023-11-19T02:41:10;4.10;;;3.70;;
64619;SDS011;51029;51.058;13.826;2023-11-19T02:43:36;4.00;;;3.70;;
64619;SDS011;51029;51.058;13.826;2023-11-19T02:46:04;5.33;;;3.90;;
64619;SDS011;51029;51.058;13.826;2023-11-19T02:48:33;4.30;;;3.90;;
64619;SDS011;51029;51.058;13.826;2023-11-19T02:51:03;4.70;;;3.80;;
64619;SDS011;51029;51.058;13.826;2023-11-19T02:53:32;4.73;;;4.33;;
64619;SDS011;51029;51.058;13.826;2023-11-19T02:55:58;4.53;;;4.03;;
64619;SDS011;51029;51.058;13.826;2023-11-19T02:58:31;3.83;;;3.53;;
64619;SDS011;51029;51.058;13.826;2023-11-19T03:00:57;4.40;;;4.00;;
64619;SDS011;51029;51.058;13.826;2023-11-19T03:03:25;4.07;;;3.67;;
64619;SDS011;51029;51.058;13.826;2023-11-19T03:06:03;4.10;;;3.70;;
64619;SDS011;51029;51.058;13.826;2023-11-19T03:08:30;4.13;;;3.37;;
64619;SDS011;51029;51.058;13.826;2023-11-19T03:10:56;4.40;;;3.63;;
64619;SDS011;51029;51.058;13.826;2023-11-19T03:13:22;3.90;;;3.60;;
64619;SDS011;51029;51.058;13.826;2023-11-19T03:15:48;4.17;;;3.70;;
64619;SDS011;51029;51.058;13.826;2023-11-19T03:18:14;3.77;;;3.47;;
64619;SDS011;51029;51.058;13.826;2023-11-19T03:20:40;3.67;;;3.33;;
64619;SDS011;51029;51.058;13.826;2023-11-19T03:23:06;3.93;;;3.50;;
64619;SDS011;51029;51.058;13.826;2023-11-19T03:25:32;3.70;;;3.30;;
64619;SDS011;51029;51.058;13.826;2023-11-19T03:27:59;4.20;;;3.63;;
64619;SDS011;51029;51.058;13.826;2023-11-19T03:30:26;4.00;;;3.40;;
64619;SDS011;51029;51.058;13.826;2023-11-19T03:32:53;3.70;;;3.27;;
64619;SDS011;51029;51.058;13.826;2023-11-19T03:35:19;3.47;;;3.17;;
64619;SDS011;51029;51.058;13.826;2023-11-19T03:37:45;5.00;;;3.10;;
64619;SDS011;51029;51.058;13.826;2023-11-19T03:40:11;5.17;;;3.43;;
64619;SDS011;51029;51.058;13.826;2023-11-19T03:42:37;3.87;;;3.47;;
64619;SDS011;51029;51.058;13.826;2023-11-19T03:45:06;3.97;;;3.27;;
64619;SDS011;51029;51.058;13.826;2023-11-19T03:47:36;3.87;;;3.57;;
64619;SDS011;51029;51.058;13.826;2023-11-19T03:50:04;4.17;;;3.77;;
64619;SDS011;51029;51.058;13.826;2023-11-19T03:52:31;4.27;;;3.73;;
64619;SDS011;51029;51.058;13.826;2023-11-19T03:54:57;4.03;;;3.37;;
64619;SDS011;51029;51.058;13.826;2023-11-19T03:57:23;4.23;;;3.83;;
64619;SDS011;51029;51.058;13.826;2023-11-19T03:59:49;4.40;;;4.00;;
64619;SDS011;51029;51.058;13.826;2023-11-19T04:02:15;4.87;;;4.37;;
64619;SDS011;51029;51.058;13.826;2023-11-19T04:04:41;5.20;;;4.70;;
64619;SDS011;51029;51.058;13.826;2023-11-19T04:07:07;5.07;;;4.57;;
64619;SDS011;51029;51.058;13.826;2023-11-19T04:09:33;6.37;;;5.20;;
64619;SDS011;51029;51.058;13.826;2023-11-19T04:11:59;6.27;;;5.67;;
64619;SDS011;51029;51.058;13.826;2023-11-19T04:14:25;5.73;;;5.03;;
64619;SDS011;51029;51.058;13.826;2023-11-19T04:16:52;5.57;;;5.07;;
64619;SDS011;51029;51.058;13.826;2023-11-19T04:19:18;6.17;;;5.57;;
64619;SDS011;51029;51.058;13.826;2023-11-19T04:21:44;5.53;;;5.03;;
64619;SDS011;51029;51.058;13.826;2023-11-19T04:24:10;5.93;;;5.33;;
64619;SDS011;51029;51.058;13.826;2023-11-19T04:26:43;5.43;;;4.93;;
64619;SDS011;51029;51.058;13.826;2023-11-19T04:29:13;5.30;;;4.80;;
64619;SDS011;51029;51.058;13.826;2023-11-19T04:31:40;5.43;;;4.93;;
64619;SDS011;51029;51.058;13.826;2023-11-19T04:34:06;6.40;;;4.77;;
64619;SDS011;51029;51.058;13.826;2023-11-19T04:36:32;5.40;;;4.60;;
64619;SDS011;51029;51.058;13.826;2023-11-19T04:38:58;5.47;;;4.97;;
64619;SDS011;51029;51.058;13.826;2023-11-19T04:41:25;5.93;;;5.00;;
64619;SDS011;51029;51.058;13.826;2023-11-19T04:43:52;5.40;;;4.73;;
64619;SDS011;51029;51.058;13.826;2023-11-19T04:46:18;6.53;;;5.83;;
64619;SDS011;51029;51.058;13.826;2023-11-19T04:48:44;6.33;;;5.67;;
64619;SDS011;51029;51.058;13.826;2023-11-19T04:51:10;7.07;;;6.03;;
64619;SDS011;51029;51.058;13.826;2023-11-19T04:53:36;6.70;;;6.07;;
64619;SDS011;51029;51.058;13.826;2023-11-19T04:56:08;6.33;;;5.67;;
64619;SDS011;51029;51.058;13.826;2023-11-19T04:58:34;7.20;;;5.97;;
64619;SDS011;51029;51.058;13.826;2023-11-19T05:01:02;7.17;;;6.00;;
64619;SDS011;51029;51.058;13.826;2023-11-19T05:03:28;7.10;;;5.80;;
64619;SDS011;51029;51.058;13.826;2023-11-19T05:05:54;6.43;;;5.83;;
64619;SDS011;51029;51.058;13.826;2023-11-19T05:08:20;6.43;;;5.83;;
64619;SDS011;51029;51.058;13.826;2023-11-19T05:10:46;6.70;;;6.00;;
64619;SDS011;51029;51.058;13.826;2023-11-19T05:13:12;8.00;;;6.60;;
64619;SDS011;51029;51.058;13.826;2023-11-19T05:15:38;8.17;;;6.70;;
64619;SDS011;51029;51.058;13.826;2023-11-19T05:18:04;6.63;;;6.03;;
64619;SDS011;51029;51.058;13.826;2023-11-19T05:20:30;7.10;;;6.40;;
64619;SDS011;51029;51.058;13.826;2023-11-19T05:22:56;8.40;;;6.80;;
64619;SDS011;51029;51.058;13.826;2023-11-19T05:25:22;8.20;;;7.07;;
64619;SDS011;51029;51.058;13.826;2023-11-19T05:27:48;7.80;;;7.00;;
64619;SDS011;51029;51.058;13.826;2023-11-19T05:30:13;8.13;;;7.30;;
64619;SDS011;51029;51.058;13.826;2023-11-19T05:32:40;8.70;;;6.83;;
64619;SDS011;51029;51.058;13.826;2023-11-19T05:35:06;8.17;;;7.37;;
64619;SDS011;51029;51.058;13.826;2023-11-19T05:37:33;8.27;;;7.40;;
64619;SDS011;51029;51.058;13.826;2023-11-19T05:39:59;9.13;;;7.50;;
64619;SDS011;51029;51.058;13.826;2023-11-19T05:42:28;7.93;;;7.03;;
64619;SDS011;51029;51.058;13.826;2023-11-19T05:44:54;8.20;;;7.13;;
64619;SDS011;51029;51.058;13.826;2023-11-19T05:47:20;8.77;;;7.30;;
64619;SDS011;51029;51.058;13.826;2023-11-19T05:49:46;8.47;;;7.40;;
64619;SDS011;51029;51.058;13.826;2023-11-19T05:52:12;8.50;;;7.70;;
64619;SDS011;51029;51.058;13.826;2023-11-19T05:54:38;8.17;;;7.17;;
64619;SDS011;51029;51.058;13.826;2023-11-19T05:57:04;8.80;;;7.90;;
64619;SDS011;51029;51.058;13.826;2023-11-19T05:59:31;8.77;;;7.87;;
64619;SDS011;51029;51.058;13.826;2023-11-19T06:01:58;8.53;;;7.73;;
64619;SDS011;51029;51.058;13.826;2023-11-19T06:04:24;8.70;;;7.80;;
64619;SDS011;51029;51.058;13.826;2023-11-19T06:06:50;9.53;;;8.53;;
64619;SDS011;51029;51.058;13.826;2023-11-19T06:09:16;9.47;;;8.10;;
64619;SDS011;51029;51.058;13.826;2023-11-19T06:11:43;8.93;;;8.03;;
64619;SDS011;51029;51.058;13.826;2023-11-19T06:14:09;8.77;;;7.90;;
64619;SDS011;51029;51.058;13.826;2023-11-19T06:16:36;9.80;;;7.93;;
64619;SDS011;51029;51.058;13.826;2023-11-19T06:19:04;8.97;;;8.07;;
64619;SDS011;51029;51.058;13.826;2023-11-19T06:21:30;8.90;;;8.00;;
64619;SDS011;51029;51.058;13.826;2023-11-19T06:23:56;8.27;;;7.40;;
64619;SDS011;51029;51.058;13.826;2023-11-19T06:26:23;8.17;;;7.00;;
64619;SDS011;51029;51.058;13.826;2023-11-19T06:28:49;8.43;;;7.53;;
64619;SDS011;51029;51.058;13.826;2023-11-19T06:31:15;8.13;;;7.43;;
64619;SDS011;51029;51.058;13.826;2023-11-19T06:33:41;7.40;;;6.70;;
64619;SDS011;51029;51.058;13.826;2023-11-19T06:36:07;7.87;;;7.07;;
64619;SDS011;51029;51.058;13.826;2023-11-19T06:38:34;7.97;;;7.17;;
64619;SDS011;51029;51.058;13.826;2023-11-19T06:41:00;7.93;;;7.13;;
64619;SDS011;51029;51.058;13.826;2023-11-19T06:43:26;7.20;;;6.50;;
64619;SDS011;51029;51.058;13.826;2023-11-19T06:45:53;7.00;;;6.30;;
64619;SDS011;51029;51.058;13.826;2023-11-19T06:48:19;6.73;;;5.70;;
64619;SDS011;51029;51.058;13.826;2023-11-19T06:50:45;6.07;;;5.47;;
64619;SDS011;51029;51.058;13.826;2023-11-19T06:53:11;7.33;;;5.77;;
64619;SDS011;51029;51.058;13.826;2023-11-19T06:55:37;5.67;;;5.17;;
64619;SDS011;51029;51.058;13.826;2023-11-19T06:58:03;5.33;;;4.83;;
64619;SDS011;51029;51.058;13.826;2023-11-19T07:00:29;5.77;;;5.27;;
64619;SDS011;51029;51.058;13.826;2023-11-19T07:02:57;5.80;;;5.20;;
64619;SDS011;51029;51.058;13.826;2023-11-19T07:05:23;4.97;;;4.47;;
64619;SDS011;51029;51.058;13.826;2023-11-19T07:07:49;4.83;;;4.43;;
64619;SDS011;51029;51.058;13.826;2023-11-19T07:10:15;5.17;;;4.67;;
64619;SDS011;51029;51.058;13.826;2023-11-19T07:12:41;5.67;;;5.00;;
64619;SDS011;51029;51.058;13.826;2023-11-19T07:15:07;5.63;;;5.00;;
64619;SDS011;51029;51.058;13.826;2023-11-19T07:17:38;4.80;;;4.10;;
64619;SDS011;51029;51.058;13.826;2023-11-19T07:20:05;5.47;;;4.40;;
64619;SDS011;51029;51.058;13.826;2023-11-19T07:22:31;5.50;;;4.90;;
64619;SDS011;51029;51.058;13.826;2023-11-19T07:24:57;4.43;;;4.03;;
64619;SDS011;51029;51.058;13.826;2023-11-19T07:27:23;5.00;;;4.50;;
64619;SDS011;51029;51.058;13.826;2023-11-19T07:29:49;5.03;;;4.50;;
64619;SDS011;51029;51.058;13.826;2023-11-19T07:32:16;5.07;;;4.47;;
64619;SDS011;51029;51.058;13.826;2023-11-19T07:34:42;4.20;;;3.80;;
64619;SDS011;51029;51.058;13.826;2023-11-19T07:37:08;4.80;;;4.30;;
64619;SDS011;51029;51.058;13.826;2023-11-19T07:39:34;4.70;;;4.30;;
64619;SDS011;51029;51.058;13.826;2023-11-19T07:42:01;4.50;;;4.10;;
64619;SDS011;51029;51.058;13.826;2023-11-19T07:44:27;4.87;;;4.20;;
64619;SDS011;51029;51.058;13.826;2023-11-19T07:46:53;4.77;;;4.33;;
64619;SDS011;51029;51.058;13.826;2023-11-19T07:49:19;5.17;;;4.67;;
64619;SDS011;51029;51.058;13.826;2023-11-19T07:51:45;5.93;;;4.43;;
64619;SDS011;51029;51.058;13.826;2023-11-19T07:54:11;5.00;;;4.60;;
64619;SDS011;51029;51.058;13.826;2023-11-19T07:56:37;4.63;;;4.23;;
64619;SDS011;51029;51.058;13.826;2023-11-19T07:59:03;4.67;;;4.27;;
64619;SDS011;51029;51.058;13.826;2023-11-19T08:01:29;4.53;;;4.13;;
64619;SDS011;51029;51.058;13.826;2023-11-19T08:03:55;5.43;;;4.77;;
64619;SDS011;51029;51.058;13.826;2023-11-19T08:06:21;4.87;;;4.37;;
64619;SDS011;51029;51.058;13.826;2023-11-19T08:08:47;5.67;;;5.13;;
64619;SDS011;51029;51.058;13.826;2023-11-19T08:11:13;5.80;;;5.30;;
64619;SDS011;51029;51.058;13.826;2023-11-19T08:13:40;5.93;;;5.40;;
64619;SDS011;51029;51.058;13.826;2023-11-19T08:16:07;5.20;;;4.70;;
64619;SDS011;51029;51.058;13.826;2023-11-19T08:18:33;5.10;;;4.50;;
64619;SDS011;51029;51.058;13.826;2023-11-19T08:20:58;4.80;;;4.40;;
64619;SDS011;51029;51.058;13.826;2023-11-19T08:23:25;4.70;;;3.97;;
64619;SDS011;51029;51.058;13.826;2023-11-19T08:25:53;4.50;;;4.10;;
64619;SDS011;51029;51.058;13.826;2023-11-19T08:28:19;4.37;;;3.90;;
64619;SDS011;51029;51.058;13.826;2023-11-19T08:30:45;3.93;;;3.53;;
64619;SDS011;51029;51.058;13.826;2023-11-19T08:33:11;3.43;;;3.13;;
64619;SDS011;51029;51.058;13.826;2023-11-19T08:35:37;5.83;;;3.37;;
64619;SDS011;51029;51.058;13.826;2023-11-19T08:38:03;4.50;;;3.10;;
64619;SDS011;51029;51.058;13.826;2023-11-19T08:40:29;3.13;;;2.83;;
64619;SDS011;51029;51.058;13.826;2023-11-19T08:42:55;3.20;;;2.73;;
64619;SDS011;51029;51.058;13.826;2023-11-19T08:45:21;3.10;;;2.73;;
64619;SDS011;51029;51.058;13.826;2023-11-19T08:47:47;4.03;;;3.17;;
64619;SDS011;51029;51.058;13.826;2023-11-19T08:50:13;3.50;;;3.00;;
64619;SDS011;51029;51.058;13.826;2023-11-19T08:52:39;3.17;;;2.90;;
64619;SDS011;51029;51.058;13.826;2023-11-19T08:55:05;2.60;;;2.40;;
64619;SDS011;51029;51.058;13.826;2023-11-19T08:57:31;4.33;;;2.80;;
64619;SDS011;51029;51.058;13.826;2023-11-19T09:00:00;4.37;;;3.33;;
64619;SDS011;51029;51.058;13.826;2023-11-19T09:02:27;4.83;;;4.30;;
64619;SDS011;51029;51.058;13.826;2023-11-19T09:04:53;4.20;;;3.90;;
64619;SDS011;51029;51.058;13.826;2023-11-19T09:07:19;4.57;;;3.93;;
64619;SDS011;51029;51.058;13.826;2023-11-19T09:09:46;4.33;;;3.80;;
64619;SDS011;51029;51.058;13.826;2023-11-19T09:12:12;5.47;;;4.43;;
64619;SDS011;51029;51.058;13.826;2023-11-19T09:14:38;5.70;;;4.33;;
64619;SDS011;51029;51.058;13.826;2023-11-19T09:17:04;3.77;;;3.40;;
64619;SDS011;51029;51.058;13.826;2023-11-19T09:19:32;5.33;;;3.70;;
64619;SDS011;51029;51.058;13.826;2023-11-19T09:21:58;2.80;;;2.60;;
64619;SDS011;51029;51.058;13.826;2023-11-19T09:24:24;3.20;;;2.87;;
64619;SDS011;51029;51.058;13.826;2023-11-19T09:26:50;3.70;;;3.30;;
64619;SDS011;51029;51.058;13.826;2023-11-19T09:29:16;3.30;;;2.60;;
64619;SDS011;51029;51.058;13.826;2023-11-19T09:31:42;4.53;;;3.60;;
64619;SDS011;51029;51.058;13.826;2023-11-19T09:34:08;3.47;;;3.17;;
64619;SDS011;51029;51.058;13.826;2023-11-19T09:36:34;4.33;;;2.87;;
64619;SDS011;51029;51.058;13.826;2023-11-19T09:39:01;4.27;;;3.63;;
64619;SDS011;51029;51.058;13.826;2023-11-19T09:41:27;5.03;;;3.20;;
64619;SDS011;51029;51.058;13.826;2023-11-19T09:43:54;6.00;;;4.60;;
64619;SDS011;51029;51.058;13.826;2023-11-19T09:46:20;6.13;;;3.83;;
64619;SDS011;51029;51.058;13.826;2023-11-19T09:48:46;5.40;;;4.70;;
64619;SDS011;51029;51.058;13.826;2023-11-19T09:51:17;5.93;;;4.13;;
64619;SDS011;51029;51.058;13.826;2023-11-19T09:53:43;4.80;;;4.30;;
64619;SDS011;51029;51.058;13.826;2023-11-19T09:56:09;3.93;;;3.47;;
64619;SDS011;51029;51.058;13.826;2023-11-19T09:58:36;6.60;;;4.00;;
64619;SDS011;51029;51.058;13.826;2023-11-19T10:01:02;6.13;;;4.70;;
64619;SDS011;51029;51.058;13.826;2023-11-19T10:03:35;7.00;;;5.03;;
64619;SDS011;51029;51.058;13.826;2023-11-19T10:06:08;8.40;;;5.97;;
64619;SDS011;51029;51.058;13.826;2023-11-19T10:08:34;8.43;;;6.50;;
64619;SDS011;51029;51.058;13.826;2023-11-19T10:11:02;6.93;;;5.43;;
64619;SDS011;51029;51.058;13.826;2023-11-19T10:13:28;6.40;;;4.47;;
64619;SDS011;51029;51.058;13.826;2023-11-19T10:15:57;4.80;;;3.90;;
64619;SDS011;51029;51.058;13.826;2023-11-19T10:18:24;6.13;;;4.40;;
64619;SDS011;51029;51.058;13.826;2023-11-19T10:20:51;4.43;;;3.80;;
64619;SDS011;51029;51.058;13.826;2023-11-19T10:23:17;6.87;;;3.80;;
64619;SDS011;51029;51.058;13.826;2023-11-19T10:25:42;4.43;;;3.43;;
64619;SDS011;51029;51.058;13.826;2023-11-19T10:28:08;5.10;;;3.50;;
64619;SDS011;51029;51.058;13.826;2023-11-19T10:30:34;21.97;;;14.07;;
64619;SDS011;51029;51.058;13.826;2023-11-19T10:35:36;80.43;;;38.53;;
64619;SDS011;51029;51.058;13.826;2023-11-19T10:38:15;61.13;;;32.57;;
64619;SDS011;51029;51.058;13.826;2023-11-19T10:40:41;144.23;;;78.53;;
64619;SDS011;51029;51.058;13.826;2023-11-19T10:43:07;121.93;;;67.70;;
64619;SDS011;51029;51.058;13.826;2023-11-19T10:45:33;109.87;;;66.67;;
64619;SDS011;51029;51.058;13.826;2023-11-19T10:47:59;16.63;;;10.67;;
64619;SDS011;51029;51.058;13.826;2023-11-19T10:50:26;8.33;;;4.80;;
64619;SDS011;51029;51.058;13.826;2023-11-19T10:52:55;6.17;;;3.60;;
64619;SDS011;51029;51.058;13.826;2023-11-19T10:55:25;7.03;;;5.47;;
64619;SDS011;51029;51.058;13.826;2023-11-19T10:57:52;9.13;;;5.23;;
64619;SDS011;51029;51.058;13.826;2023-11-19T11:00:18;11.97;;;6.50;;
64619;SDS011;51029;51.058;13.826;2023-11-19T11:02:45;7.47;;;2.60;;
64619;SDS011;51029;51.058;13.826;2023-11-19T11:05:16;4.00;;;2.13;;
64619;SDS011;51029;51.058;13.826;2023-11-19T11:07:42;3.90;;;1.80;;
64619;SDS011;51029;51.058;13.826;2023-11-19T11:10:09;3.77;;;1.93;;
64619;SDS011;51029;51.058;13.826;2023-11-19T11:12:37;2.07;;;1.40;;
64619;SDS011;51029;51.058;13.826;2023-11-19T11:15:04;3.73;;;1.80;;
64619;SDS011;51029;51.058;13.826;2023-11-19T11:17:31;2.50;;;1.33;;
64619;SDS011;51029;51.058;13.826;2023-11-19T11:19:58;1.63;;;1.33;;
64619;SDS011;51029;51.058;13.826;2023-11-19T11:22:24;2.07;;;1.40;;
64619;SDS011;51029;51.058;13.826;2023-11-19T11:36:06;1.70;;;1.20;;
64619;SDS011;51029;51.058;13.826;2023-11-19T11:38:36;2.60;;;1.10;;
64619;SDS011;51029;51.058;13.826;2023-11-19T11:41:22;2.93;;;1.63;;
64619;SDS011;51029;51.058;13.826;2023-11-19T11:43:49;4.33;;;1.60;;
64619;SDS011;51029;51.058;13.826;2023-11-19T11:48:58;2.83;;;1.20;;
64619;SDS011;51029;51.058;13.826;2023-11-19T11:51:57;3.47;;;1.40;;
64619;SDS011;51029;51.058;13.826;2023-11-19T11:59:31;6.03;;;1.70;;
64619;SDS011;51029;51.058;13.826;2023-11-19T12:01:58;4.67;;;1.33;;
64619;SDS011;51029;51.058;13.826;2023-11-19T12:04:27;2.53;;;1.40;;
64619;SDS011;51029;51.058;13.826;2023-11-19T12:07:06;4.73;;;1.30;;
64619;SDS011;51029;51.058;13.826;2023-11-19T12:09:32;4.03;;;1.40;;
64619;SDS011;51029;51.058;13.826;2023-11-19T12:17:43;3.47;;;1.43;;
64619;SDS011;51029;51.058;13.826;2023-11-19T12:20:10;4.47;;;1.57;;
64619;SDS011;51029;51.058;13.826;2023-11-19T12:22:37;7.93;;;1.97;;
64619;SDS011;51029;51.058;13.826;2023-11-19T12:25:04;3.70;;;1.70;;
64619;SDS011;51029;51.058;13.826;2023-11-19T12:27:30;4.57;;;1.77;;
64619;SDS011;51029;51.058;13.826;2023-11-19T12:29:56;5.77;;;2.10;;
64619;SDS011;51029;51.058;13.826;2023-11-19T12:32:22;4.83;;;1.73;;
64619;SDS011;51029;51.058;13.826;2023-11-19T12:34:49;5.67;;;1.80;;
64619;SDS011;51029;51.058;13.826;2023-11-19T12:37:15;5.70;;;1.80;;
64619;SDS011;51029;51.058;13.826;2023-11-19T12:39:41;6.13;;;1.90;;
64619;SDS011;51029;51.058;13.826;2023-11-19T12:42:08;6.67;;;1.83;;
64619;SDS011;51029;51.058;13.826;2023-11-19T12:44:34;6.07;;;1.90;;
64619;SDS011;51029;51.058;13.826;2023-11-19T12:47:03;6.03;;;2.00;;
64619;SDS011;51029;51.058;13.826;2023-11-19T12:49:31;5.43;;;1.90;;
64619;SDS011;51029;51.058;13.826;2023-11-19T12:51:57;5.07;;;2.03;;
64619;SDS011;51029;51.058;13.826;2023-11-19T12:54:35;6.50;;;1.97;;
64619;SDS011;51029;51.058;13.826;2023-11-19T12:57:02;8.37;;;2.10;;
64619;SDS011;51029;51.058;13.826;2023-11-19T12:59:29;5.47;;;1.83;;
64619;SDS011;51029;51.058;13.826;2023-11-19T13:04:21;8.80;;;2.17;;
64619;SDS011;51029;51.058;13.826;2023-11-19T13:06:49;7.17;;;2.33;;
64619;SDS011;51029;51.058;13.826;2023-11-19T13:09:24;6.67;;;1.83;;
64619;SDS011;51029;51.058;13.826;2023-11-19T13:11:50;5.13;;;2.10;;
64619;SDS011;51029;51.058;13.826;2023-11-19T13:14:17;5.43;;;2.00;;
64619;SDS011;51029;51.058;13.826;2023-11-19T13:16:43;9.17;;;2.40;;
64619;SDS011;51029;51.058;13.826;2023-11-19T13:19:11;5.47;;;2.30;;
64619;SDS011;51029;51.058;13.826;2023-11-19T13:21:37;4.47;;;1.97;;
64619;SDS011;51029;51.058;13.826;2023-11-19T13:24:05;8.97;;;2.20;;
64619;SDS011;51029;51.058;13.826;2023-11-19T13:26:31;5.80;;;2.00;;
64619;SDS011;51029;51.058;13.826;2023-11-19T13:28:56;8.10;;;2.10;;
64619;SDS011;51029;51.058;13.826;2023-11-19T13:31:22;6.63;;;2.23;;
64619;SDS011;51029;51.058;13.826;2023-11-19T13:33:48;7.63;;;2.53;;
64619;SDS011;51029;51.058;13.826;2023-11-19T13:36:14;5.63;;;2.10;;
64619;SDS011;51029;51.058;13.826;2023-11-19T13:38:40;8.17;;;2.53;;
64619;SDS011;51029;51.058;13.826;2023-11-19T13:41:07;6.97;;;2.13;;
64619;SDS011;51029;51.058;13.826;2023-11-19T13:43:37;10.47;;;2.80;;
64619;SDS011;51029;51.058;13.826;2023-11-19T13:46:03;8.17;;;2.40;;
64619;SDS011;51029;51.058;13.826;2023-11-19T13:48:29;10.57;;;2.47;;
64619;SDS011;51029;51.058;13.826;2023-11-19T13:50:55;7.53;;;2.70;;
64619;SDS011;51029;51.058;13.826;2023-11-19T13:53:21;11.43;;;2.43;;
64619;SDS011;51029;51.058;13.826;2023-11-19T13:55:48;9.37;;;2.23;;
64619;SDS011;51029;51.058;13.826;2023-11-19T13:58:14;9.97;;;2.80;;
64619;SDS011;51029;51.058;13.826;2023-11-19T14:00:41;7.27;;;2.50;;
64619;SDS011;51029;51.058;13.826;2023-11-19T14:03:07;9.20;;;1.90;;
64619;SDS011;51029;51.058;13.826;2023-11-19T14:05:35;9.53;;;2.47;;
64619;SDS011;51029;51.058;13.826;2023-11-19T14:08:01;11.63;;;3.00;;
64619;SDS011;51029;51.058;13.826;2023-11-19T14:10:27;8.73;;;2.50;;
64619;SDS011;51029;51.058;13.826;2023-11-19T14:12:53;6.90;;;2.53;;
64619;SDS011;51029;51.058;13.826;2023-11-19T14:15:19;9.17;;;3.00;;
64619;SDS011;51029;51.058;13.826;2023-11-19T14:17:45;10.90;;;2.80;;
64619;SDS011;51029;51.058;13.826;2023-11-19T14:20:11;10.70;;;2.83;;
64619;SDS011;51029;51.058;13.826;2023-11-19T14:22:43;7.93;;;2.50;;
64619;SDS011;51029;51.058;13.826;2023-11-19T14:25:09;8.27;;;2.37;;
64619;SDS011;51029;51.058;13.826;2023-11-19T14:27:36;7.97;;;2.70;;
64619;SDS011;51029;51.058;13.826;2023-11-19T14:30:03;8.20;;;2.53;;
64619;SDS011;51029;51.058;13.826;2023-11-19T14:32:30;8.47;;;2.60;;
64619;SDS011;51029;51.058;13.826;2023-11-19T14:34:56;9.20;;;2.93;;
64619;SDS011;51029;51.058;13.826;2023-11-19T14:37:22;9.67;;;2.70;;
64619;SDS011;51029;51.058;13.826;2023-11-19T14:39:48;11.77;;;2.73;;
64619;SDS011;51029;51.058;13.826;2023-11-19T14:42:15;12.90;;;3.23;;
64619;SDS011;51029;51.058;13.826;2023-11-19T14:44:41;11.67;;;2.53;;
64619;SDS011;51029;51.058;13.826;2023-11-19T14:47:07;11.83;;;2.70;;
64619;SDS011;51029;51.058;13.826;2023-11-19T14:49:37;10.30;;;3.03;;
64619;SDS011;51029;51.058;13.826;2023-11-19T14:52:03;6.10;;;2.47;;
64619;SDS011;51029;51.058;13.826;2023-11-19T14:54:29;8.63;;;2.70;;
64619;SDS011;51029;51.058;13.826;2023-11-19T14:56:56;8.33;;;2.90;;
64619;SDS011;51029;51.058;13.826;2023-11-19T14:59:22;7.27;;;2.53;;
64619;SDS011;51029;51.058;13.826;2023-11-19T15:01:48;16.50;;;3.20;;